Estación Meteorológica Peña el Pijo (Robertgarden) [ 02/03/23 03:43:36 CET ]

Fecha Hora Presion(HPa) Temp (°C) Humedad % Rocio (°C) Viento ( m/s) Direccion Lluvia 1Hora(mm) Lluvia 24H(mm) LLuvia Total(mm)
2012-Jan-02 01:01:15 1016.400 0.9 82 -1.9         151.25
2012-Jan-02 02:03:14 1016.200 1.0 85 -1.3         151.25
2012-Jan-02 03:01:14 1015.900 5.5 77 1.8         151.25
2012-Jan-02 04:01:17 1015.600 7.5 62 0.7         151.25
2012-Jan-02 05:01:12 1016.000 7.2 68 1.7         151.25
2012-Jan-02 06:01:14 1015.700 6.5 73 2.0         151.25
2012-Jan-02 07:01:18 1016.500 5.5 75 1.4         151.25
2012-Jan-02 08:01:13 1016.900 5.2 77 1.5         151.25
2012-Jan-02 09:01:16 1017.100 5.6 78 2.0         151.25
2012-Jan-02 10:01:17 1018.000 6.1 77 2.4 2.0 S     151.25
2012-Jan-02 11:01:13 1018.600 7.2 73 2.7         151.25
2012-Jan-02 12:01:17 1018.400 9.9 66 3.8         151.25
2012-Jan-02 13:01:13 1017.600 11.1 60 3.6 3.3 S     151.25
2012-Jan-02 14:01:17 1017.900 11.3 56 2.8         151.25
2012-Jan-02 15:01:18 1017.900 11.4 52 1.9         151.25
2012-Jan-02 16:01:13 1018.500 9.6 57 1.5         151.25
2012-Jan-02 17:01:17 1018.600 8.1 62 1.2 1.1 S     151.25
2012-Jan-02 18:01:13 1019.300 6.8 65 0.7         151.25
2012-Jan-02 19:01:12 1020.300 5.7 69 0.5         151.25
2012-Jan-02 20:01:13 1020.900 5.6 71 0.8         151.25
2012-Jan-02 21:01:13 1021.100 4.8 75 0.7         151.25
2012-Jan-02 22:01:16 1021.800 4.1 74 -0.1         151.25
2012-Jan-02 23:01:14 1022.100 1.8 77 -1.8         151.25

Temperatura Máxima:11°    Temperatura Mínima:
Presión Máxima:1022.100 Hpa    Presión Mínima:1015.600 Hpa


Volver